Terminal Aerodrome Forecast
Issued by NWS Charleston, WV

Home | Current Version | Previous Version | Text Only | Print | Product List | Glossary On
Versions: 1 2 3 4 5 6 7 8 9 10 11 12 13 14 15 16 17 18 19 20 21 22 23 24
000
FTUS41 KRLX 310500
TAFBKW
TAF
KBKW 310530Z 3106/0106 00000KT P6SM SCT025
     FM310800 00000KT P6SM BKN250
     FM311400 26007KT P6SM SCT040
     FM010000 00000KT P6SM BKN045=

USA.gov is the U.S. government's official web portal to all federal, state and local government web resources and services.